Time;durP1;ratioP1;P1;durP2;ratioP2;P2;SDS_P1;SDS_P2;PMS_P1;PMS_P2;Temp;Humidity;BMP_temperature;BMP_pressure;BME280_temperature;BME280_humidity;BME280_pressure;Samples;Min_cycle;Max_cycle;Signal;HPM_P1;HPM_P2
2023/08/15 00:01:40;;;;;;;16.90;11.50;;;;;;;;;;106952;1251;60302;-79
2023/08/15 00:04:07;;;;;;;12.40;9.00;;;;;;;;;;106955;1253;61241;-80
2023/08/15 00:06:33;;;;;;;18.30;11.70;;;;;;;;;;106861;1251;61227;-80
2023/08/15 00:09:00;;;;;;;19.30;12.60;;;;;;;;;;106861;1251;62706;-80
2023/08/15 00:11:26;;;;;;;16.20;12.00;;;;;;;;;;106930;1251;61563;-80
2023/08/15 00:13:56;;;;;;;15.10;11.10;;;;;;;;;;106938;1251;61208;-80
2023/08/15 00:16:22;;;;;;;16.80;11.20;;;;;;;;;;106899;1250;61262;-80
2023/08/15 00:18:49;;;;;;;14.90;10.60;;;;;;;;;;106970;1254;61355;-80
2023/08/15 00:21:16;;;;;;;17.80;10.90;;;;;;;;;;106973;1251;61347;-80
2023/08/15 00:23:42;;;;;;;13.80;10.90;;;;;;;;;;106879;1253;62587;-81
2023/08/15 00:26:09;;;;;;;15.70;11.50;;;;;;;;;;106884;1250;59307;-81
2023/08/15 00:28:35;;;;;;;15.00;11.60;;;;;;;;;;106917;1251;61362;-81
2023/08/15 00:31:02;;;;;;;15.50;11.10;;;;;;;;;;106814;1251;61324;-81
2023/08/15 00:33:28;;;;;;;16.50;10.90;;;;;;;;;;106969;1251;61279;-80
2023/08/15 00:35:55;;;;;;;15.20;11.40;;;;;;;;;;106837;1251;61245;-81
2023/08/15 00:38:21;;;;;;;21.60;12.30;;;;;;;;;;106898;1251;61223;-81
2023/08/15 00:40:47;;;;;;;15.80;11.70;;;;;;;;;;106833;1251;61162;-81
2023/08/15 00:43:17;;;;;;;15.80;11.10;;;;;;;;;;106888;1253;61250;-81
2023/08/15 00:45:43;;;;;;;17.30;12.00;;;;;;;;;;106898;1251;61344;-81
2023/08/15 00:48:10;;;;;;;18.70;12.90;;;;;;;;;;106882;1250;61771;-81
2023/08/15 00:50:36;;;;;;;15.10;12.40;;;;;;;;;;106904;1250;61330;-80
2023/08/15 00:53:03;;;;;;;19.70;12.70;;;;;;;;;;106928;1252;61317;-81
2023/08/15 00:55:29;;;;;;;16.70;12.60;;;;;;;;;;106896;1250;61363;-81
2023/08/15 00:57:56;;;;;;;16.30;11.40;;;;;;;;;;106928;1253;61271;-81
2023/08/15 01:00:22;;;;;;;16.20;11.70;;;;;;;;;;106929;1250;61384;-81
2023/08/15 01:02:49;;;;;;;14.70;11.80;;;;;;;;;;106920;1251;61272;-81
2023/08/15 01:05:18;;;;;;;18.50;11.80;;;;;;;;;;106894;1253;61349;-81
2023/08/15 01:07:44;;;;;;;21.70;12.80;;;;;;;;;;106986;1254;61266;-80
2023/08/15 01:10:10;;;;;;;17.90;12.90;;;;;;;;;;106911;1250;61075;-80
2023/08/15 01:12:46;;;;;;;19.50;12.80;;;;;;;;;;106894;1250;61124;-80
2023/08/15 01:15:16;;;;;;;16.60;13.60;;;;;;;;;;106885;1251;62379;-80
2023/08/15 01:17:44;;;;;;;18.10;13.00;;;;;;;;;;106979;1253;61192;-80
2023/08/15 01:20:12;;;;;;;19.10;13.40;;;;;;;;;;106874;1251;61237;-80
2023/08/15 01:22:41;;;;;;;18.30;12.70;;;;;;;;;;106886;1250;61263;-80
2023/08/15 01:25:07;;;;;;;18.10;13.20;;;;;;;;;;106949;1254;61204;-80
2023/08/15 01:27:34;;;;;;;15.40;12.30;;;;;;;;;;106972;1250;61225;-81
2023/08/15 01:30:00;;;;;;;22.20;13.40;;;;;;;;;;106854;1251;61301;-80
2023/08/15 01:32:33;;;;;;;22.50;13.20;;;;;;;;;;106875;1257;61221;-80
2023/08/15 01:35:07;;;;;;;16.80;11.50;;;;;;;;;;106854;1254;61545;-80
2023/08/15 01:37:35;;;;;;;19.60;11.70;;;;;;;;;;106841;1254;61299;-80
2023/08/15 01:40:02;;;;;;;15.80;12.10;;;;;;;;;;106845;1254;61253;-80
2023/08/15 01:42:29;;;;;;;15.70;11.90;;;;;;;;;;106926;1251;61149;-80
2023/08/15 01:44:55;;;;;;;15.20;10.80;;;;;;;;;;106888;1250;61366;-80
2023/08/15 01:47:21;;;;;;;17.10;11.90;;;;;;;;;;106907;1250;61229;-80
2023/08/15 01:49:48;;;;;;;16.00;12.70;;;;;;;;;;106881;1253;59078;-80
2023/08/15 01:52:15;;;;;;;20.80;12.80;;;;;;;;;;106863;1249;61397;-80
2023/08/15 01:54:41;;;;;;;16.40;11.80;;;;;;;;;;106928;1251;61357;-80
2023/08/15 01:57:07;;;;;;;18.20;12.40;;;;;;;;;;106884;1249;61277;-80
2023/08/15 01:59:34;;;;;;;24.80;14.00;;;;;;;;;;106952;1250;61330;-80
2023/08/15 02:02:00;;;;;;;14.60;11.20;;;;;;;;;;106838;1249;61330;-81
2023/08/15 02:04:27;;;;;;;16.00;11.30;;;;;;;;;;107062;1250;61328;-80
2023/08/15 02:06:53;;;;;;;19.10;12.90;;;;;;;;;;106897;1254;61347;-81
2023/08/15 02:09:19;;;;;;;13.60;11.30;;;;;;;;;;106889;1251;61285;-81
2023/08/15 02:11:46;;;;;;;14.80;11.80;;;;;;;;;;107001;1250;61360;-81
2023/08/15 02:14:12;;;;;;;15.80;11.50;;;;;;;;;;107025;1249;61404;-80
2023/08/15 02:16:39;;;;;;;16.30;11.60;;;;;;;;;;106879;1250;61248;-80
2023/08/15 02:19:05;;;;;;;20.10;10.90;;;;;;;;;;106900;1251;61401;-80
2023/08/15 02:21:32;;;;;;;13.50;10.70;;;;;;;;;;106879;1254;61356;-80
2023/08/15 02:23:59;;;;;;;18.30;10.40;;;;;;;;;;106874;1251;61326;-80
2023/08/15 02:26:25;;;;;;;16.00;12.20;;;;;;;;;;106823;1251;60886;-80
2023/08/15 02:28:52;;;;;;;13.70;11.50;;;;;;;;;;106906;1253;62115;-80
2023/08/15 02:31:18;;;;;;;15.30;10.70;;;;;;;;;;106820;1254;61295;-80
2023/08/15 02:33:44;;;;;;;13.70;10.70;;;;;;;;;;106801;1251;61223;-79
2023/08/15 02:36:11;;;;;;;17.80;12.70;;;;;;;;;;106807;1251;61369;-80
2023/08/15 02:38:37;;;;;;;17.90;11.10;;;;;;;;;;106834;1251;61093;-81
2023/08/15 02:41:04;;;;;;;15.10;11.70;;;;;;;;;;106865;1251;61330;-79
2023/08/15 02:43:30;;;;;;;15.60;12.00;;;;;;;;;;107025;1254;61316;-80
2023/08/15 02:45:57;;;;;;;14.60;11.20;;;;;;;;;;106812;1254;61323;-80
2023/08/15 02:48:23;;;;;;;13.40;10.90;;;;;;;;;;106894;1250;61302;-79
2023/08/15 02:50:49;;;;;;;15.70;12.10;;;;;;;;;;106875;1254;61264;-80
2023/08/15 02:53:16;;;;;;;15.50;12.10;;;;;;;;;;106835;1254;61356;-80
2023/08/15 02:55:42;;;;;;;15.70;11.40;;;;;;;;;;106786;1254;61269;-80
2023/08/15 02:58:08;;;;;;;16.30;11.80;;;;;;;;;;106867;1254;61349;-80
2023/08/15 03:00:35;;;;;;;15.10;11.90;;;;;;;;;;106856;1250;61206;-79
2023/08/15 03:03:02;;;;;;;15.90;12.10;;;;;;;;;;106861;1249;59156;-80
2023/08/15 03:05:29;;;;;;;15.70;12.00;;;;;;;;;;106948;1254;61356;-80
2023/08/15 03:07:55;;;;;;;15.40;10.60;;;;;;;;;;107092;1251;62265;-80
2023/08/15 03:10:21;;;;;;;14.00;10.70;;;;;;;;;;106867;1253;61241;-80
2023/08/15 03:12:48;;;;;;;19.30;11.30;;;;;;;;;;106901;1253;61208;-79
2023/08/15 03:15:14;;;;;;;17.70;11.40;;;;;;;;;;106856;1253;62671;-80
2023/08/15 03:17:41;;;;;;;16.20;11.00;;;;;;;;;;106872;1249;61241;-80
2023/08/15 03:20:09;;;;;;;16.30;10.90;;;;;;;;;;106896;1249;62148;-80
2023/08/15 03:22:35;;;;;;;21.60;11.30;;;;;;;;;;107192;1250;61343;-80
2023/08/15 03:25:02;;;;;;;14.40;11.80;;;;;;;;;;107121;1251;61382;-79
2023/08/15 03:27:28;;;;;;;17.00;11.70;;;;;;;;;;106850;1254;61218;-80
2023/08/15 03:29:54;;;;;;;19.80;11.00;;;;;;;;;;106806;1251;61343;-80
2023/08/15 03:32:21;;;;;;;14.60;11.20;;;;;;;;;;106801;1257;61328;-80
2023/08/15 03:34:48;;;;;;;12.90;10.60;;;;;;;;;;106818;1251;61320;-80
2023/08/15 03:37:14;;;;;;;16.80;10.80;;;;;;;;;;106844;1251;61424;-80
2023/08/15 03:39:40;;;;;;;13.80;11.40;;;;;;;;;;106846;1254;61410;-80
2023/08/15 03:42:07;;;;;;;14.10;10.10;;;;;;;;;;106912;1254;61144;-79
2023/08/15 03:44:33;;;;;;;14.20;10.70;;;;;;;;;;106907;1250;61344;-79
2023/08/15 03:47:00;;;;;;;15.90;12.20;;;;;;;;;;106884;1250;61363;-79
2023/08/15 03:49:26;;;;;;;16.90;10.90;;;;;;;;;;106861;1251;61329;-79
2023/08/15 03:51:52;;;;;;;16.50;12.10;;;;;;;;;;106818;1250;61336;-80
2023/08/15 03:54:19;;;;;;;13.80;11.40;;;;;;;;;;106906;1254;61356;-80
2023/08/15 03:56:45;;;;;;;15.30;11.80;;;;;;;;;;106853;1251;61263;-80
2023/08/15 03:59:11;;;;;;;14.70;10.70;;;;;;;;;;106942;1250;61337;-80
2023/08/15 04:01:38;;;;;;;11.90;10.30;;;;;;;;;;106405;1253;61216;-80
2023/08/15 04:04:05;;;;;;;15.30;11.90;;;;;;;;;;106623;1249;61333;-80
2023/08/15 04:06:31;;;;;;;16.80;12.00;;;;;;;;;;106429;1250;61394;-80
2023/08/15 04:08:57;;;;;;;13.10;10.80;;;;;;;;;;106554;1250;61266;-80
2023/08/15 04:11:24;;;;;;;12.60;10.70;;;;;;;;;;106796;1250;61241;-80
2023/08/15 04:13:50;;;;;;;15.10;10.00;;;;;;;;;;106871;1251;61241;-80
2023/08/15 04:16:17;;;;;;;17.00;10.50;;;;;;;;;;106869;1250;61267;-80
2023/08/15 04:18:43;;;;;;;17.20;10.30;;;;;;;;;;106851;1254;61243;-79
2023/08/15 04:21:10;;;;;;;15.00;10.80;;;;;;;;;;106785;1250;61356;-80
2023/08/15 04:23:37;;;;;;;15.10;9.90;;;;;;;;;;106916;1251;61311;-80
2023/08/15 04:26:03;;;;;;;15.80;10.80;;;;;;;;;;106790;1249;62432;-80
2023/08/15 04:28:29;;;;;;;14.70;10.70;;;;;;;;;;106879;1254;61162;-80
2023/08/15 04:30:56;;;;;;;13.70;11.20;;;;;;;;;;106874;1250;61345;-80
2023/08/15 04:33:22;;;;;;;15.20;10.70;;;;;;;;;;106855;1250;61339;-80
2023/08/15 04:35:49;;;;;;;12.00;10.40;;;;;;;;;;106821;1250;61239;-80
2023/08/15 04:38:15;;;;;;;14.60;10.50;;;;;;;;;;106832;1250;62091;-80
2023/08/15 04:40:43;;;;;;;12.50;9.70;;;;;;;;;;106857;1251;61381;-81
2023/08/15 04:43:10;;;;;;;16.80;10.60;;;;;;;;;;106930;1250;61301;-80
2023/08/15 04:45:40;;;;;;;16.20;10.20;;;;;;;;;;106799;1254;59402;-80
2023/08/15 04:48:07;;;;;;;14.40;11.20;;;;;;;;;;106767;1250;61161;-80
2023/08/15 04:50:34;;;;;;;10.70;8.90;;;;;;;;;;106824;1250;61231;-80
2023/08/15 04:53:00;;;;;;;13.50;9.20;;;;;;;;;;106883;1250;61916;-80
2023/08/15 04:55:27;;;;;;;13.90;9.10;;;;;;;;;;106858;1250;61347;-80
2023/08/15 04:57:53;;;;;;;14.60;9.60;;;;;;;;;;106864;1250;61147;-80
2023/08/15 05:00:20;;;;;;;11.20;8.60;;;;;;;;;;106780;1250;61228;-80
2023/08/15 05:02:47;;;;;;;11.20;9.60;;;;;;;;;;106770;1251;61283;-80
2023/08/15 05:05:13;;;;;;;14.50;9.50;;;;;;;;;;106839;1250;61251;-80
2023/08/15 05:07:40;;;;;;;12.10;9.30;;;;;;;;;;106765;1249;61313;-81
2023/08/15 05:10:07;;;;;;;15.20;10.20;;;;;;;;;;106899;1250;61262;-81
2023/08/15 05:12:34;;;;;;;12.60;9.00;;;;;;;;;;106784;1251;61313;-81
2023/08/15 05:15:00;;;;;;;13.70;8.70;;;;;;;;;;106732;1251;61195;-81
2023/08/15 05:17:27;;;;;;;12.80;9.30;;;;;;;;;;106758;1254;61427;-81
2023/08/15 05:19:53;;;;;;;12.40;9.20;;;;;;;;;;106842;1251;61230;-81
2023/08/15 05:22:20;;;;;;;13.90;10.60;;;;;;;;;;106794;1252;61884;-81
2023/08/15 05:24:47;;;;;;;16.10;10.60;;;;;;;;;;106770;1252;61269;-81
2023/08/15 05:27:13;;;;;;;10.50;9.20;;;;;;;;;;106821;1250;61221;-81
2023/08/15 05:29:43;;;;;;;12.50;9.10;;;;;;;;;;106800;1251;61286;-80
2023/08/15 05:32:10;;;;;;;12.60;9.40;;;;;;;;;;106812;1251;61993;-80
2023/08/15 05:34:36;;;;;;;11.10;8.70;;;;;;;;;;106781;1254;61139;-81
2023/08/15 05:37:03;;;;;;;10.80;9.00;;;;;;;;;;106763;1254;61250;-80
2023/08/15 05:39:29;;;;;;;12.80;8.90;;;;;;;;;;106783;1251;61217;-80
2023/08/15 05:41:55;;;;;;;16.90;8.90;;;;;;;;;;106813;1251;61127;-80
2023/08/15 05:44:22;;;;;;;10.40;8.90;;;;;;;;;;106818;1251;61321;-80
2023/08/15 05:46:48;;;;;;;13.10;9.10;;;;;;;;;;106757;1249;62487;-80
2023/08/15 05:49:15;;;;;;;15.80;8.50;;;;;;;;;;106886;1251;61350;-80
2023/08/15 05:51:41;;;;;;;10.50;8.20;;;;;;;;;;106828;1253;61321;-80
2023/08/15 05:54:07;;;;;;;12.40;9.40;;;;;;;;;;106877;1250;61227;-80
2023/08/15 05:56:34;;;;;;;10.50;7.90;;;;;;;;;;106868;1253;61205;-81
2023/08/15 05:59:00;;;;;;;12.10;8.20;;;;;;;;;;106878;1250;61336;-80
2023/08/15 06:01:26;;;;;;;10.80;8.10;;;;;;;;;;106855;1249;61253;-80
2023/08/15 06:03:53;;;;;;;10.70;8.60;;;;;;;;;;106918;1254;61264;-81
2023/08/15 06:06:21;;;;;;;9.50;8.40;;;;;;;;;;106858;1250;61117;-80
2023/08/15 06:08:47;;;;;;;10.10;7.50;;;;;;;;;;106877;1250;61251;-81
2023/08/15 06:11:15;;;;;;;32.70;22.50;;;;;;;;;;106887;1251;61266;-80
2023/08/15 06:13:41;;;;;;;12.70;8.70;;;;;;;;;;106857;1250;61248;-80
2023/08/15 06:16:07;;;;;;;13.60;8.90;;;;;;;;;;106858;1250;62387;-81
2023/08/15 06:18:34;;;;;;;12.60;8.20;;;;;;;;;;106973;1249;61285;-80
2023/08/15 06:21:00;;;;;;;10.60;7.90;;;;;;;;;;106878;1250;62000;-80
2023/08/15 06:23:27;;;;;;;13.80;7.60;;;;;;;;;;106924;1250;61234;-80
2023/08/15 06:25:53;;;;;;;11.30;8.20;;;;;;;;;;106914;1251;61350;-80
2023/08/15 06:28:20;;;;;;;20.40;9.00;;;;;;;;;;106918;1250;61344;-81
2023/08/15 06:30:47;;;;;;;10.00;8.10;;;;;;;;;;106903;1251;61146;-81
2023/08/15 06:33:13;;;;;;;10.10;8.30;;;;;;;;;;106901;1251;61248;-80
2023/08/15 06:35:39;;;;;;;9.90;8.10;;;;;;;;;;106838;1254;61335;-80
2023/08/15 06:38:06;;;;;;;9.20;8.30;;;;;;;;;;106921;1251;61251;-80
2023/08/15 06:40:32;;;;;;;11.80;8.20;;;;;;;;;;106852;1253;61353;-81
2023/08/15 06:42:59;;;;;;;9.10;7.40;;;;;;;;;;107127;1249;61133;-80
2023/08/15 06:45:25;;;;;;;11.60;7.60;;;;;;;;;;106955;1251;61360;-80
2023/08/15 06:47:52;;;;;;;12.90;9.20;;;;;;;;;;106913;1250;61245;-80
2023/08/15 06:50:18;;;;;;;14.60;9.40;;;;;;;;;;106893;1250;61256;-81
2023/08/15 06:52:44;;;;;;;14.20;7.70;;;;;;;;;;106924;1250;61328;-80
2023/08/15 06:55:11;;;;;;;12.10;7.70;;;;;;;;;;106892;1250;61132;-81
2023/08/15 06:57:37;;;;;;;8.60;6.90;;;;;;;;;;106922;1250;61267;-81
2023/08/15 07:00:07;;;;;;;9.70;7.20;;;;;;;;;;106937;1254;61211;-81
2023/08/15 07:02:33;;;;;;;8.90;6.60;;;;;;;;;;106911;1250;61262;-81
2023/08/15 07:05:00;;;;;;;11.30;6.30;;;;;;;;;;106944;1254;62247;-81
2023/08/15 07:07:26;;;;;;;9.20;6.00;;;;;;;;;;106925;1250;61286;-81
2023/08/15 07:09:53;;;;;;;13.40;7.00;;;;;;;;;;106872;1250;61369;-81
2023/08/15 07:12:19;;;;;;;7.70;6.20;;;;;;;;;;106819;1250;183639;-81
2023/08/15 07:14:46;;;;;;;8.50;6.20;;;;;;;;;;106898;1250;61215;-81
2023/08/15 07:17:12;;;;;;;14.00;8.60;;;;;;;;;;106860;1254;63083;-81
2023/08/15 07:19:39;;;;;;;10.90;6.30;;;;;;;;;;106891;1249;61328;-81
2023/08/15 07:22:05;;;;;;;8.10;5.90;;;;;;;;;;106840;1250;61292;-81
2023/08/15 07:24:31;;;;;;;5.90;5.30;;;;;;;;;;107091;1250;61297;-81
2023/08/15 07:26:58;;;;;;;9.20;5.50;;;;;;;;;;106931;1254;61310;-81
2023/08/15 07:29:24;;;;;;;6.50;5.50;;;;;;;;;;106892;1254;62283;-82
2023/08/15 07:31:51;;;;;;;6.20;5.10;;;;;;;;;;106867;1254;61209;-81
2023/08/15 07:34:17;;;;;;;7.70;6.20;;;;;;;;;;106871;1255;62297;-82
2023/08/15 07:36:44;;;;;;;6.10;4.90;;;;;;;;;;106943;1251;61225;-81
2023/08/15 07:39:10;;;;;;;9.50;5.70;;;;;;;;;;106883;1250;61106;-82
2023/08/15 07:41:36;;;;;;;7.10;4.90;;;;;;;;;;106933;1250;61825;-81
2023/08/15 07:44:03;;;;;;;5.50;4.60;;;;;;;;;;106763;1254;60898;-81
2023/08/15 07:46:30;;;;;;;5.30;4.60;;;;;;;;;;106591;1254;61240;-81
2023/08/15 07:48:56;;;;;;;8.80;5.30;;;;;;;;;;106739;1250;61903;-81
2023/08/15 07:51:24;;;;;;;8.90;4.20;;;;;;;;;;106641;1249;61314;-81
2023/08/15 07:53:50;;;;;;;5.00;3.90;;;;;;;;;;106799;1250;61229;-82
2023/08/15 07:56:16;;;;;;;6.20;4.40;;;;;;;;;;106640;1253;61215;-81
2023/08/15 07:58:43;;;;;;;6.60;3.60;;;;;;;;;;106757;1249;61304;-82
2023/08/15 08:01:09;;;;;;;11.10;3.80;;;;;;;;;;106687;1251;61436;-81
2023/08/15 08:03:38;;;;;;;4.60;3.30;;;;;;;;;;106728;1250;61795;-82
2023/08/15 08:06:05;;;;;;;6.40;3.50;;;;;;;;;;106630;1250;61291;-81
2023/08/15 08:08:31;;;;;;;5.30;3.20;;;;;;;;;;106703;1250;61142;-82
2023/08/15 08:10:58;;;;;;;9.40;3.70;;;;;;;;;;106704;1254;62608;-82
2023/08/15 08:13:24;;;;;;;5.70;3.40;;;;;;;;;;106710;1253;61228;-81
2023/08/15 08:15:51;;;;;;;6.50;3.80;;;;;;;;;;106653;1250;62286;-82
2023/08/15 08:18:17;;;;;;;5.90;3.70;;;;;;;;;;106747;1254;62433;-82
2023/08/15 08:20:43;;;;;;;7.10;3.90;;;;;;;;;;106694;1254;61144;-82
2023/08/15 08:23:12;;;;;;;4.60;4.10;;;;;;;;;;106742;1250;61241;-82
2023/08/15 08:25:39;;;;;;;4.30;3.60;;;;;;;;;;106701;1254;61574;-82
2023/08/15 08:28:06;;;;;;;4.20;3.10;;;;;;;;;;106670;1250;61261;-82
2023/08/15 08:30:33;;;;;;;7.00;3.30;;;;;;;;;;106660;1254;61245;-82
2023/08/15 08:32:59;;;;;;;5.70;3.10;;;;;;;;;;107431;1250;61257;-82
2023/08/15 08:35:26;;;;;;;3.70;3.10;;;;;;;;;;106906;1250;62772;-82
2023/08/15 08:37:52;;;;;;;11.60;4.20;;;;;;;;;;106780;1250;61318;-82
2023/08/15 08:40:19;;;;;;;6.50;3.30;;;;;;;;;;106765;1253;61250;-82
2023/08/15 08:42:45;;;;;;;2.90;2.60;;;;;;;;;;106652;1251;60803;-82
2023/08/15 08:45:12;;;;;;;10.30;3.70;;;;;;;;;;106744;1250;61212;-83
2023/08/15 08:47:39;;;;;;;6.50;3.30;;;;;;;;;;106886;1250;61331;-83
2023/08/15 08:50:11;;;;;;;4.40;2.70;;;;;;;;;;106877;1250;61372;-83
2023/08/15 08:52:39;;;;;;;6.30;3.00;;;;;;;;;;106741;1250;61275;-83
2023/08/15 08:55:06;;;;;;;7.80;3.20;;;;;;;;;;106723;1251;61323;-83
2023/08/15 08:57:33;;;;;;;5.40;2.80;;;;;;;;;;106790;1249;61337;-82
2023/08/15 09:00:00;;;;;;;5.50;3.10;;;;;;;;;;106687;1250;61350;-83
2023/08/15 09:02:26;;;;;;;5.90;3.00;;;;;;;;;;106665;1250;61255;-83
2023/08/15 09:04:55;;;;;;;3.30;2.80;;;;;;;;;;106617;1251;61291;-84
2023/08/15 09:07:22;;;;;;;4.80;2.60;;;;;;;;;;106741;1251;61337;-83
2023/08/15 09:09:48;;;;;;;5.80;2.80;;;;;;;;;;106766;1253;61339;-83
2023/08/15 09:12:31;;;;;;;6.20;2.40;;;;;;;;;;106665;1255;62391;-83
2023/08/15 09:14:57;;;;;;;3.40;2.30;;;;;;;;;;106631;1250;61253;-83
2023/08/15 09:17:24;;;;;;;3.40;2.60;;;;;;;;;;106727;1250;61253;-83
2023/08/15 09:19:51;;;;;;;5.50;3.20;;;;;;;;;;106634;1250;61326;-82
2023/08/15 09:22:21;;;;;;;6.10;3.10;;;;;;;;;;106704;1250;61321;-82
2023/08/15 09:24:47;;;;;;;3.70;2.80;;;;;;;;;;106665;1249;61314;-82
2023/08/15 09:27:13;;;;;;;3.60;2.70;;;;;;;;;;106673;1249;62203;-82
2023/08/15 09:29:40;;;;;;;4.20;2.80;;;;;;;;;;106700;1255;61415;-82
2023/08/15 09:32:07;;;;;;;6.20;2.90;;;;;;;;;;106634;1253;61324;-83
2023/08/15 09:34:33;;;;;;;7.10;3.10;;;;;;;;;;106760;1251;61144;-82
2023/08/15 09:37:00;;;;;;;5.00;2.60;;;;;;;;;;106700;1251;61212;-82
2023/08/15 09:39:27;;;;;;;6.00;3.20;;;;;;;;;;106711;1252;61243;-83
2023/08/15 09:41:54;;;;;;;4.60;3.10;;;;;;;;;;106630;1254;61371;-82
2023/08/15 09:44:30;;;;;;;5.30;2.80;;;;;;;;;;106737;1254;61209;-83
2023/08/15 09:46:56;;;;;;;4.80;2.60;;;;;;;;;;106670;1251;61323;-82
2023/08/15 09:49:23;;;;;;;6.00;2.60;;;;;;;;;;106704;1253;62945;-82
2023/08/15 09:51:50;;;;;;;5.50;2.60;;;;;;;;;;106743;1254;61327;-83
2023/08/15 09:54:16;;;;;;;4.60;2.60;;;;;;;;;;106697;1254;61205;-83
2023/08/15 09:56:42;;;;;;;2.60;2.30;;;;;;;;;;106665;1254;61374;-83
2023/08/15 09:59:09;;;;;;;4.90;2.40;;;;;;;;;;106668;1253;61373;-83
2023/08/15 10:01:37;;;;;;;4.60;2.30;;;;;;;;;;106707;1253;61417;-83
2023/08/15 10:04:06;;;;;;;3.00;2.20;;;;;;;;;;106657;1254;61343;-82
2023/08/15 10:06:33;;;;;;;4.90;2.20;;;;;;;;;;106579;1253;61219;-83
2023/08/15 10:09:00;;;;;;;4.30;2.40;;;;;;;;;;106598;1252;61387;-83
2023/08/15 10:11:26;;;;;;;5.50;2.40;;;;;;;;;;106628;1256;61317;-83
2023/08/15 10:13:53;;;;;;;3.80;2.10;;;;;;;;;;106657;1254;61903;-82
2023/08/15 10:16:19;;;;;;;3.70;2.50;;;;;;;;;;106611;1253;61109;-82
2023/08/15 10:18:53;;;;;;;5.40;2.40;;;;;;;;;;106618;1253;61715;-82
2023/08/15 10:21:19;;;;;;;4.60;2.20;;;;;;;;;;106687;1253;61282;-82
2023/08/15 10:23:45;;;;;;;6.80;2.40;;;;;;;;;;106585;1253;61221;-82
2023/08/15 10:26:12;;;;;;;3.90;2.60;;;;;;;;;;106594;1251;62321;-83
2023/08/15 10:28:39;;;;;;;2.30;1.90;;;;;;;;;;106592;1252;61237;-83
2023/08/15 10:31:05;;;;;;;;;;;;;;;;;;106625;1254;61256;-82
2023/08/15 10:33:32;;;;;;;5.30;2.30;;;;;;;;;;106704;1256;61282;-82
2023/08/15 10:35:59;;;;;;;5.10;2.50;;;;;;;;;;106593;1250;61262;-82
2023/08/15 10:38:30;;;;;;;6.10;4.20;;;;;;;;;;106595;1250;62288;-82
2023/08/15 10:41:00;;;;;;;5.20;2.40;;;;;;;;;;106682;1250;61340;-82
2023/08/15 10:43:30;;;;;;;5.10;2.50;;;;;;;;;;106617;1250;63193;-82
2023/08/15 10:45:57;;;;;;;4.20;2.70;;;;;;;;;;106533;1250;61251;-82
2023/08/15 10:48:43;;;;;;;5.10;2.80;;;;;;;;;;106647;1250;61186;-82
2023/08/15 10:51:20;;;;;;;7.20;2.70;;;;;;;;;;106662;1250;61985;-82
2023/08/15 10:53:49;;;;;;;7.70;2.60;;;;;;;;;;106585;1254;62218;-82
2023/08/15 10:56:19;;;;;;;7.10;2.90;;;;;;;;;;106569;1251;61410;-81
2023/08/15 10:58:46;;;;;;;4.60;2.30;;;;;;;;;;106624;1256;61296;-81
2023/08/15 11:01:19;;;;;;;4.50;2.40;;;;;;;;;;106539;1253;61218;-82
2023/08/15 11:03:48;;;;;;;5.20;2.70;;;;;;;;;;106635;1250;62228;-83
2023/08/15 11:06:15;;;;;;;5.50;3.50;;;;;;;;;;106649;1255;61439;-82
2023/08/15 11:08:42;;;;;;;8.10;3.30;;;;;;;;;;106829;1250;61141;-82
2023/08/15 11:11:09;;;;;;;7.70;3.40;;;;;;;;;;106628;1255;61218;-80
2023/08/15 11:13:39;;;;;;;7.10;3.60;;;;;;;;;;106679;1250;61162;-81
2023/08/15 11:16:05;;;;;;;5.90;3.40;;;;;;;;;;106620;1253;62890;-81
2023/08/15 11:18:32;;;;;;;8.50;3.20;;;;;;;;;;106602;1255;61264;-81
2023/08/15 11:20:59;;;;;;;5.20;3.00;;;;;;;;;;106537;1251;61215;-81
2023/08/15 11:23:28;;;;;;;4.40;2.90;;;;;;;;;;106716;1256;61334;-80
2023/08/15 11:26:02;;;;;;;6.20;3.50;;;;;;;;;;106575;1250;61193;-81
2023/08/15 11:28:29;;;;;;;5.60;3.10;;;;;;;;;;106723;1250;62582;-81
2023/08/15 11:30:56;;;;;;;6.60;3.40;;;;;;;;;;106537;1251;61296;-80
2023/08/15 11:33:24;;;;;;;4.70;3.80;;;;;;;;;;106545;1251;61217;-81
2023/08/15 11:35:50;;;;;;;7.20;2.90;;;;;;;;;;106623;1250;61327;-81
2023/08/15 11:38:17;;;;;;;4.80;3.60;;;;;;;;;;106682;1253;61247;-80
2023/08/15 11:40:44;;;;;;;6.20;2.70;;;;;;;;;;106583;1250;61587;-81
2023/08/15 11:43:10;;;;;;;4.10;3.10;;;;;;;;;;106653;1251;61337;-81
2023/08/15 11:45:39;;;;;;;4.50;3.00;;;;;;;;;;106573;1250;61209;-81
2023/08/15 11:48:07;;;;;;;5.50;2.70;;;;;;;;;;106653;1250;61396;-81
2023/08/15 11:50:33;;;;;;;4.40;2.70;;;;;;;;;;106625;1254;62388;-80
2023/08/15 11:53:00;;;;;;;5.10;2.90;;;;;;;;;;106618;1251;61304;-81
2023/08/15 11:55:26;;;;;;;5.20;3.10;;;;;;;;;;106650;1251;61221;-81
2023/08/15 11:57:53;;;;;;;5.30;2.90;;;;;;;;;;106692;1250;62275;-81
2023/08/15 12:00:19;;;;;;;5.20;3.00;;;;;;;;;;106533;1250;62418;-81
2023/08/15 12:02:47;;;;;;;4.50;3.50;;;;;;;;;;106577;1250;61336;-81
2023/08/15 12:05:15;;;;;;;4.20;3.00;;;;;;;;;;107003;1250;61241;-81
2023/08/15 12:07:41;;;;;;;6.50;3.50;;;;;;;;;;106900;1250;61202;-80
2023/08/15 12:10:08;;;;;;;4.50;3.30;;;;;;;;;;106919;1254;61267;-81
2023/08/15 12:12:42;;;;;;;9.00;3.10;;;;;;;;;;106916;1253;61117;-81
2023/08/15 12:15:09;;;;;;;5.00;3.90;;;;;;;;;;106887;1250;61228;-81
2023/08/15 12:17:35;;;;;;;5.90;4.00;;;;;;;;;;106903;1256;61626;-81
2023/08/15 12:20:04;;;;;;;4.70;2.70;;;;;;;;;;106900;1250;62245;-81
2023/08/15 12:22:31;;;;;;;5.40;3.10;;;;;;;;;;106867;1250;61260;-81
2023/08/15 12:24:57;;;;;;;5.10;2.90;;;;;;;;;;106899;1250;62372;-81
2023/08/15 12:27:24;;;;;;;6.40;2.80;;;;;;;;;;106925;1254;59081;-80
2023/08/15 12:29:50;;;;;;;3.70;2.80;;;;;;;;;;106920;1251;61255;-81
2023/08/15 12:32:17;;;;;;;5.30;2.40;;;;;;;;;;106875;1254;61237;-81
2023/08/15 12:34:43;;;;;;;4.50;2.60;;;;;;;;;;106880;1254;61316;-81
2023/08/15 12:37:09;;;;;;;5.10;3.10;;;;;;;;;;106875;1253;62039;-81
2023/08/15 12:39:36;;;;;;;4.40;2.40;;;;;;;;;;106810;1254;62284;-82
2023/08/15 12:42:03;;;;;;;5.10;2.70;;;;;;;;;;106889;1254;61628;-82
2023/08/15 12:44:29;;;;;;;2.40;2.00;;;;;;;;;;107026;1250;61225;-81
2023/08/15 12:46:55;;;;;;;2.70;2.00;;;;;;;;;;107313;1253;61270;-82
2023/08/15 12:49:22;;;;;;;3.90;2.60;;;;;;;;;;106894;1254;61261;-81
2023/08/15 12:51:48;;;;;;;4.90;2.90;;;;;;;;;;106914;1253;61279;-82
2023/08/15 12:54:16;;;;;;;3.10;2.00;;;;;;;;;;106908;1250;61260;-82
2023/08/15 12:56:42;;;;;;;4.80;2.10;;;;;;;;;;106947;1254;61375;-82
2023/08/15 12:59:08;;;;;;;4.30;2.00;;;;;;;;;;107049;1250;61279;-83
2023/08/15 13:01:35;;;;;;;3.20;1.90;;;;;;;;;;106870;1251;61214;-83
2023/08/15 13:04:01;;;;;;;3.10;2.00;;;;;;;;;;106994;1250;61369;-82
2023/08/15 13:06:28;;;;;;;4.80;2.30;;;;;;;;;;106944;1251;61202;-82
2023/08/15 13:08:54;;;;;;;5.70;2.20;;;;;;;;;;106944;1250;61233;-82
2023/08/15 13:11:21;;;;;;;6.00;2.30;;;;;;;;;;106943;1253;61403;-83
2023/08/15 13:13:48;;;;;;;5.20;1.80;;;;;;;;;;106850;1254;61336;-83
2023/08/15 13:16:14;;;;;;;4.40;2.00;;;;;;;;;;107022;1250;61238;-83
2023/08/15 13:18:40;;;;;;;2.60;2.00;;;;;;;;;;106872;1251;59679;-83
2023/08/15 13:21:07;;;;;;;5.80;2.30;;;;;;;;;;106844;1253;61337;-83
2023/08/15 13:23:34;;;;;;;4.10;1.70;;;;;;;;;;106662;1256;61248;-82
2023/08/15 13:26:00;;;;;;;;;;;;;;;;;;106642;1250;61205;-82
2023/08/15 13:28:27;;;;;;;4.00;1.70;;;;;;;;;;106633;1254;61359;-83
2023/08/15 13:30:53;;;;;;;3.50;1.60;;;;;;;;;;106618;1253;61228;-82
2023/08/15 13:33:19;;;;;;;;;;;;;;;;;;106715;1251;61289;-82
2023/08/15 13:35:46;;;;;;;3.00;2.00;;;;;;;;;;106560;1251;61253;-83
2023/08/15 13:38:12;;;;;;;;;;;;;;;;;;106581;1250;61412;-83
2023/08/15 13:40:39;;;;;;;4.40;1.90;;;;;;;;;;106551;1253;61266;-82
2023/08/15 13:43:05;;;;;;;4.20;1.70;;;;;;;;;;107004;1251;61215;-82
2023/08/15 13:45:32;;;;;;;2.50;1.90;;;;;;;;;;107065;1254;61158;-83
2023/08/15 13:48:00;;;;;;;2.30;1.70;;;;;;;;;;106987;1253;61337;-83
2023/08/15 13:50:26;;;;;;;3.80;1.60;;;;;;;;;;106668;1251;61343;-83
2023/08/15 13:52:53;;;;;;;2.60;1.90;;;;;;;;;;106700;1250;61279;-82
2023/08/15 13:55:19;;;;;;;2.20;2.00;;;;;;;;;;106817;1250;61254;-83
2023/08/15 13:57:46;;;;;;;;;;;;;;;;;;106855;1250;61292;-82
2023/08/15 14:00:12;;;;;;;1.70;1.50;;;;;;;;;;106607;1254;61243;-82
2023/08/15 14:02:39;;;;;;;;;;;;;;;;;;106641;1254;61206;-83
2023/08/15 14:05:05;;;;;;;5.10;1.60;;;;;;;;;;106747;1253;61835;-83
2023/08/15 14:07:32;;;;;;;3.50;2.00;;;;;;;;;;106651;1256;61247;-82
2023/08/15 14:09:59;;;;;;;9.40;2.40;;;;;;;;;;106595;1255;61820;-82
2023/08/15 14:12:26;;;;;;;2.70;1.90;;;;;;;;;;106553;1252;61297;-82
2023/08/15 14:14:53;;;;;;;3.60;1.90;;;;;;;;;;106610;1250;61222;-82
2023/08/15 14:17:19;;;;;;;2.70;2.00;;;;;;;;;;106610;1256;61263;-81
2023/08/15 14:19:45;;;;;;;3.70;2.50;;;;;;;;;;106600;1254;62418;-82